Groton City, New York
Current Conditions -  °F | °C
As of 12:56 PM on Friday 31 Oct 2014 (Local Time) from KITH Reporting Station
Overcast Overcast  
Wind Chill: 46°   Ceiling: 12000
Heat Index: 48°   Visibility: 10mi
Dew Point: 35°   Wind: 5mph
Humidity: 61%   Direction: 100°E
Pressure: 29.95"   Gusts: NA
Location:  42.5874°N, 76.3904°W
Report Text: KITH 311656Z 10004KT 10SM FEW029 OVC120 09/02 A2995 RMK AO2 T00880016 SLP150
Loading
Personal Weather Stations






























Interactive Weather Map
Tropical Storm Tracking
New forecast layout! Learn more

10-Day Weather Forecast

Advertisements
Track Severe Weather on mobile